createdAt,value
2022-08-17T00:00:42.579Z,3.33
2022-08-17T00:03:48.322Z,4.00
2022-08-17T00:06:50.893Z,3.70
2022-08-17T00:09:53.305Z,3.70
2022-08-17T00:12:55.728Z,4.37
2022-08-17T00:16:03.591Z,4.07
2022-08-17T00:19:08.897Z,3.70
2022-08-17T00:22:32.891Z,3.83
2022-08-17T00:25:34.592Z,3.85
2022-08-17T00:28:38.527Z,4.10
2022-08-17T00:31:40.958Z,4.47
2022-08-17T00:34:43.370Z,3.80
2022-08-17T00:37:45.526Z,3.65
2022-08-17T00:41:00.098Z,4.10
2022-08-17T00:44:05.124Z,4.12
2022-08-17T00:47:07.746Z,3.90
2022-08-17T00:50:15.703Z,4.00
2022-08-17T00:56:28.630Z,3.97
2022-08-17T00:59:37.388Z,3.83
2022-08-17T01:02:43.993Z,4.45
2022-08-17T01:05:50.411Z,4.07
2022-08-17T01:08:57.499Z,3.92
2022-08-17T01:12:00.485Z,4.35
2022-08-17T01:15:04.153Z,4.30
2022-08-17T01:18:09.499Z,4.15
2022-08-17T01:21:36.382Z,4.62
2022-08-17T01:24:47.309Z,4.03
2022-08-17T01:27:49.831Z,4.15
2022-08-17T01:30:58.254Z,4.80
2022-08-17T01:34:06.654Z,4.40
2022-08-17T01:37:09.430Z,4.75
2022-08-17T01:40:35.163Z,4.45
2022-08-17T01:43:45.493Z,4.68
2022-08-17T01:46:47.702Z,4.90
2022-08-17T01:49:50.649Z,4.95
2022-08-17T01:52:58.173Z,4.62
2022-08-17T01:56:07.103Z,4.45
2022-08-17T01:59:10.085Z,4.72
2022-08-17T02:02:12.573Z,5.00
2022-08-17T02:05:35.192Z,3.92
2022-08-17T02:08:39.486Z,4.57
2022-08-17T02:12:38.172Z,4.70
2022-08-17T02:15:27.016Z,4.37
2022-08-17T02:18:30.189Z,5.55
2022-08-17T02:21:32.500Z,4.85
2022-08-17T02:24:58.697Z,4.18
2022-08-17T02:28:00.544Z,4.60
2022-08-17T02:31:08.749Z,5.18
2022-08-17T02:34:11.157Z,5.12
2022-08-17T02:37:14.135Z,5.65
2022-08-17T02:40:17.057Z,4.60
2022-08-17T02:43:35.873Z,5.45
2022-08-17T02:46:38.052Z,4.60
2022-08-17T02:49:40.492Z,4.80
2022-08-17T02:52:44.687Z,5.35
2022-08-17T02:55:53.262Z,5.18
2022-08-17T02:58:55.558Z,5.37
2022-08-17T03:01:58.033Z,5.05
2022-08-17T03:05:00.213Z,5.05
2022-08-17T03:08:05.559Z,5.20
2022-08-17T03:11:07.872Z,5.60
2022-08-17T03:14:10.733Z,5.70
2022-08-17T03:17:17.347Z,6.00
2022-08-17T03:20:21.539Z,5.53
2022-08-17T03:23:25.593Z,5.80
2022-08-17T03:26:29.623Z,5.32
2022-08-17T03:29:32.034Z,5.87
2022-08-17T03:32:46.395Z,5.12
2022-08-17T03:35:48.838Z,5.30
2022-08-17T03:38:51.589Z,5.32
2022-08-17T03:41:55.156Z,5.62
2022-08-17T03:44:58.211Z,5.53
2022-08-17T03:48:21.616Z,5.43
2022-08-17T03:52:01.582Z,6.00
2022-08-17T03:55:35.840Z,5.70
2022-08-17T03:58:40.432Z,6.45
2022-08-17T04:01:50.337Z,6.05
2022-08-17T04:05:03.090Z,5.72
2022-08-17T04:08:10.155Z,5.12
2022-08-17T04:11:15.833Z,5.10
2022-08-17T04:14:22.002Z,4.78
2022-08-17T04:17:51.085Z,5.50
2022-08-17T04:20:57.508Z,5.68
2022-08-17T04:27:40.646Z,5.12
2022-08-17T04:34:14.599Z,5.20
2022-08-17T04:37:34.156Z,6.20
2022-08-17T04:41:04.201Z,5.65
2022-08-17T04:44:13.623Z,5.87
2022-08-17T04:51:32.369Z,5.57
2022-08-17T04:54:39.248Z,5.72
2022-08-17T04:57:53.765Z,5.60
2022-08-17T05:01:04.172Z,5.28
2022-08-17T05:04:32.155Z,4.97
2022-08-17T05:07:39.608Z,5.40
2022-08-17T05:10:45.215Z,5.22
2022-08-17T05:13:50.773Z,5.47
2022-08-17T05:16:55.299Z,5.17
2022-08-17T05:19:59.424Z,4.90
2022-08-17T05:23:13.983Z,4.82
2022-08-17T05:26:26.534Z,4.72
2022-08-17T05:29:33.634Z,4.20
2022-08-17T05:32:40.371Z,4.78
2022-08-17T05:35:49.864Z,4.25
2022-08-17T05:38:52.499Z,4.47
2022-08-17T05:41:55.429Z,4.53
2022-08-17T05:44:59.319Z,4.30
2022-08-17T05:48:04.488Z,4.47
2022-08-17T05:51:31.973Z,3.97
2022-08-17T05:54:39.510Z,4.10
2022-08-17T05:57:55.932Z,4.20
2022-08-17T06:01:09.642Z,3.90
2022-08-17T06:04:23.692Z,4.07
2022-08-17T06:07:36.869Z,4.32
2022-08-17T06:10:55.964Z,4.00
2022-08-17T06:14:06.206Z,3.85
2022-08-17T06:17:14.481Z,4.20
2022-08-17T06:20:17.233Z,3.70
2022-08-17T06:24:02.471Z,3.92
2022-08-17T06:27:23.453Z,4.43
2022-08-17T06:30:59.107Z,4.32
2022-08-17T06:33:51.885Z,4.03
2022-08-17T06:37:09.060Z,4.50
2022-08-17T06:40:36.229Z,4.57
2022-08-17T06:44:06.582Z,4.35
2022-08-17T06:47:27.923Z,4.30
2022-08-17T06:50:35.938Z,4.53
2022-08-17T06:54:06.404Z,3.80
2022-08-17T06:57:30.610Z,4.32
2022-08-17T07:00:41.708Z,4.10
2022-08-17T07:03:59.406Z,4.12
2022-08-17T07:07:28.742Z,4.20
2022-08-17T07:10:43.009Z,4.65
2022-08-17T07:14:15.219Z,4.80
2022-08-17T07:17:21.530Z,4.25
2022-08-17T07:20:48.406Z,4.30
2022-08-17T07:24:30.749Z,4.37
2022-08-17T07:27:45.297Z,4.00
2022-08-17T07:30:54.388Z,3.87
2022-08-17T07:34:01.705Z,4.47
2022-08-17T07:37:05.298Z,4.28
2022-08-17T07:40:27.560Z,4.20
2022-08-17T07:43:41.798Z,4.18
2022-08-17T07:47:12.818Z,4.20
2022-08-17T07:50:27.524Z,4.15
2022-08-17T07:53:32.022Z,4.37
2022-08-17T07:56:39.408Z,4.25
2022-08-17T08:00:01.698Z,4.10
2022-08-17T08:03:23.713Z,4.22
2022-08-17T08:06:28.734Z,4.43
2022-08-17T08:09:41.736Z,4.72
2022-08-17T08:13:00.426Z,4.50
2022-08-17T08:16:22.592Z,4.50
2022-08-17T08:19:26.202Z,4.62
2022-08-17T08:22:38.303Z,4.70
2022-08-17T08:25:40.587Z,5.00
2022-08-17T08:29:00.408Z,4.68
2022-08-17T08:32:08.138Z,5.30
2022-08-17T08:35:26.783Z,5.28
2022-08-17T08:38:34.917Z,5.07
2022-08-17T08:41:49.121Z,4.65
2022-08-17T08:45:10.058Z,4.97
2022-08-17T08:48:53.000Z,4.90
2022-08-17T08:51:56.697Z,4.97
2022-08-17T08:55:11.554Z,5.10
2022-08-17T08:58:31.563Z,5.00
2022-08-17T09:02:09.658Z,4.68
2022-08-17T09:05:29.568Z,5.30
2022-08-17T09:08:44.073Z,5.35
2022-08-17T09:12:04.134Z,5.12
2022-08-17T09:15:21.784Z,5.10
2022-08-17T09:21:58.419Z,5.25
2022-08-17T09:25:13.644Z,4.93
2022-08-17T09:28:20.589Z,5.20
2022-08-17T09:31:35.452Z,4.55
2022-08-17T09:34:56.563Z,5.25
2022-08-17T09:38:16.207Z,4.85
2022-08-17T09:41:49.307Z,4.75
2022-08-17T09:45:06.907Z,5.03
2022-08-17T09:48:21.369Z,4.53
2022-08-17T09:51:48.605Z,4.97
2022-08-17T09:54:53.396Z,5.20
2022-08-17T09:58:34.696Z,5.12
2022-08-17T10:01:55.385Z,5.20
2022-08-17T10:05:07.353Z,5.30
2022-08-17T10:08:47.963Z,5.22
2022-08-17T10:12:17.122Z,4.90
2022-08-17T10:15:30.439Z,4.90
2022-08-17T10:18:49.656Z,3.95
2022-08-17T10:22:14.881Z,3.90
2022-08-17T10:26:14.436Z,3.45
2022-08-17T10:29:25.084Z,3.20
2022-08-17T10:32:40.748Z,3.55
2022-08-17T10:35:59.235Z,3.30
2022-08-17T10:39:15.904Z,2.92
2022-08-17T10:42:57.534Z,3.30
2022-08-17T10:46:31.388Z,3.20
2022-08-17T10:49:56.152Z,2.90
2022-08-17T10:52:58.896Z,3.22
2022-08-17T10:56:13.491Z,3.30
2022-08-17T10:59:34.681Z,3.33
2022-08-17T11:02:52.388Z,3.00
2022-08-17T11:06:14.144Z,2.95
2022-08-17T11:09:50.119Z,2.80
2022-08-17T11:13:15.117Z,2.67
2022-08-17T11:16:36.289Z,2.67
2022-08-17T11:19:47.865Z,2.72
2022-08-17T11:22:58.047Z,2.35
2022-08-17T11:26:04.091Z,2.62
2022-08-17T11:29:17.969Z,3.20
2022-08-17T11:32:38.769Z,3.12
2022-08-17T11:36:04.161Z,3.10
2022-08-17T11:39:25.222Z,2.85
2022-08-17T11:43:04.756Z,3.28
2022-08-17T11:46:23.085Z,3.53
2022-08-17T11:50:00.648Z,3.65
2022-08-17T11:53:05.893Z,3.28
2022-08-17T11:56:31.541Z,3.65
2022-08-17T11:59:36.910Z,3.22
2022-08-17T12:02:48.141Z,4.30
2022-08-17T12:06:01.084Z,3.87
2022-08-17T12:09:13.621Z,3.03
2022-08-17T12:12:35.477Z,3.40
2022-08-17T12:15:48.663Z,3.12
2022-08-17T12:18:57.963Z,3.20
2022-08-17T12:22:12.940Z,3.25
2022-08-17T12:25:25.975Z,2.97
2022-08-17T12:28:35.968Z,3.05
2022-08-17T12:31:49.433Z,2.87
2022-08-17T12:34:51.821Z,2.72
2022-08-17T12:37:57.663Z,2.78
2022-08-17T12:41:21.013Z,2.85
2022-08-17T12:44:36.088Z,2.97
2022-08-17T12:47:48.737Z,2.50
2022-08-17T12:50:52.409Z,2.62
2022-08-17T12:53:55.556Z,2.92
2022-08-17T12:57:04.588Z,3.03
2022-08-17T13:00:17.504Z,2.65
2022-08-17T13:03:23.151Z,2.60
2022-08-17T13:06:34.328Z,2.92
2022-08-17T13:09:40.392Z,2.70
2022-08-17T13:12:43.092Z,2.92
2022-08-17T13:15:54.056Z,2.40
2022-08-17T13:19:08.407Z,2.45
2022-08-17T13:22:12.823Z,2.55
2022-08-17T13:25:16.749Z,2.30
2022-08-17T13:28:30.593Z,2.22
2022-08-17T13:31:51.786Z,2.37
2022-08-17T13:35:14.455Z,2.40
2022-08-17T13:38:36.241Z,2.47
2022-08-17T13:41:38.948Z,2.17
2022-08-17T13:44:41.435Z,2.17
2022-08-17T13:47:44.038Z,2.30
2022-08-17T13:50:55.480Z,2.05
2022-08-17T13:54:00.343Z,2.45
2022-08-17T13:57:05.187Z,2.90
2022-08-17T14:00:29.962Z,2.10
2022-08-17T14:03:32.598Z,2.30
2022-08-17T14:06:54.779Z,2.40
2022-08-17T14:10:06.051Z,2.28
2022-08-17T14:13:14.751Z,2.10
2022-08-17T14:16:17.376Z,2.20
2022-08-17T14:19:21.957Z,2.20
2022-08-17T14:22:31.307Z,2.08
2022-08-17T14:25:33.518Z,2.00
2022-08-17T14:28:38.640Z,2.60
2022-08-17T14:31:57.328Z,2.53
2022-08-17T14:35:03.646Z,2.30
2022-08-17T14:38:06.021Z,2.28
2022-08-17T14:41:08.569Z,2.47
2022-08-17T14:44:12.550Z,2.22
2022-08-17T14:47:15.888Z,2.15
2022-08-17T14:50:21.325Z,2.22
2022-08-17T14:53:24.957Z,2.33
2022-08-17T14:56:27.280Z,2.47
2022-08-17T14:59:35.184Z,2.33
2022-08-17T15:03:03.944Z,2.45
2022-08-17T15:06:06.872Z,2.72
2022-08-17T15:09:09.098Z,2.37
2022-08-17T15:12:26.428Z,2.55
2022-08-17T15:15:34.114Z,2.33
2022-08-17T15:18:36.709Z,2.60
2022-08-17T15:21:38.910Z,2.50
2022-08-17T15:24:41.387Z,2.30
2022-08-17T15:27:44.073Z,2.70
2022-08-17T15:30:46.717Z,2.65
2022-08-17T15:33:49.160Z,2.75
2022-08-17T15:36:51.772Z,2.05
2022-08-17T15:39:54.752Z,2.30
2022-08-17T15:42:57.857Z,2.10
2022-08-17T15:46:12.557Z,2.70
2022-08-17T15:49:15.037Z,2.42
2022-08-17T15:52:18.980Z,2.17
2022-08-17T15:55:24.100Z,2.30
2022-08-17T15:58:30.073Z,2.30
2022-08-17T16:01:57.422Z,2.30
2022-08-17T16:05:11.378Z,2.20
2022-08-17T16:08:20.868Z,2.00
2022-08-17T16:11:25.948Z,2.58
2022-08-17T16:14:33.678Z,2.47
2022-08-17T16:17:40.291Z,2.40
2022-08-17T16:20:43.726Z,2.30
2022-08-17T16:23:49.109Z,2.10
2022-08-17T16:26:51.289Z,2.30
2022-08-17T16:29:55.566Z,2.30
2022-08-17T16:33:00.988Z,2.10
2022-08-17T16:36:03.732Z,2.58
2022-08-17T16:39:05.878Z,2.20
2022-08-17T16:42:45.222Z,2.30
2022-08-17T16:45:51.871Z,2.17
2022-08-17T16:52:01.595Z,2.08
2022-08-17T16:55:07.089Z,2.35
2022-08-17T16:58:09.326Z,2.75
2022-08-17T17:01:12.771Z,2.50
2022-08-17T17:04:18.500Z,2.40
2022-08-17T17:07:40.376Z,2.10
2022-08-17T17:10:47.064Z,2.42
2022-08-17T17:14:02.147Z,2.12
2022-08-17T17:17:28.751Z,2.30
2022-08-17T17:20:42.492Z,2.60
2022-08-17T17:23:55.504Z,2.42
2022-08-17T17:27:17.618Z,2.53
2022-08-17T17:30:34.946Z,2.47
2022-08-17T17:33:42.610Z,2.42
2022-08-17T17:36:53.942Z,2.70
2022-08-17T17:40:01.972Z,2.80
2022-08-17T17:43:27.618Z,3.15
2022-08-17T17:46:35.249Z,2.75
2022-08-17T17:49:46.692Z,3.08
2022-08-17T17:52:52.181Z,2.90
2022-08-17T17:56:37.498Z,2.75
2022-08-17T18:00:13.348Z,2.97
2022-08-17T18:03:45.822Z,2.85
2022-08-17T18:07:25.535Z,2.87
2022-08-17T18:10:48.931Z,2.92
2022-08-17T18:14:06.827Z,2.95
2022-08-17T18:17:10.668Z,3.35
2022-08-17T18:20:13.981Z,2.95
2022-08-17T18:23:23.144Z,3.30
2022-08-17T18:26:32.750Z,3.45
2022-08-17T18:29:42.693Z,3.42
2022-08-17T18:32:48.895Z,3.55
2022-08-17T18:35:59.217Z,3.40
2022-08-17T18:39:15.309Z,2.90
2022-08-17T18:42:28.822Z,2.80
2022-08-17T18:45:39.357Z,2.40
2022-08-17T18:49:04.016Z,2.78
2022-08-17T18:52:15.350Z,2.92
2022-08-17T18:55:24.024Z,3.05
2022-08-17T18:58:26.192Z,3.25
2022-08-17T19:01:52.374Z,2.83
2022-08-17T19:05:04.614Z,2.90
2022-08-17T19:08:28.744Z,3.35
2022-08-17T19:11:34.633Z,3.35
2022-08-17T19:14:37.303Z,2.92
2022-08-17T19:17:49.089Z,3.60
2022-08-17T19:21:03.610Z,3.12
2022-08-17T19:24:05.643Z,3.00
2022-08-17T19:27:18.014Z,2.87
2022-08-17T19:30:22.120Z,3.25
2022-08-17T19:33:25.753Z,3.22
2022-08-17T19:36:44.491Z,3.03
2022-08-17T19:39:50.042Z,3.28
2022-08-17T19:43:18.751Z,3.42
2022-08-17T19:46:27.323Z,2.90
2022-08-17T19:49:52.590Z,3.62
2022-08-17T19:53:07.293Z,3.37
2022-08-17T19:56:25.001Z,2.90
2022-08-17T20:00:01.800Z,3.12
2022-08-17T20:03:19.106Z,3.05
2022-08-17T20:06:23.016Z,3.70
2022-08-17T20:09:33.478Z,3.83
2022-08-17T20:12:42.563Z,3.30
2022-08-17T20:15:45.974Z,3.08
2022-08-17T20:19:16.883Z,3.30
2022-08-17T20:22:52.119Z,3.25
2022-08-17T20:26:05.352Z,3.28
2022-08-17T20:29:29.561Z,3.20
2022-08-17T20:32:51.826Z,3.08
2022-08-17T20:36:02.407Z,3.03
2022-08-17T20:39:04.943Z,4.25
2022-08-17T20:42:22.390Z,3.12
2022-08-17T20:45:26.071Z,3.47
2022-08-17T20:48:38.459Z,3.20
2022-08-17T20:52:02.389Z,3.47
2022-08-17T20:55:05.235Z,3.37
2022-08-17T20:58:30.814Z,3.40
2022-08-17T21:01:39.906Z,3.85
2022-08-17T21:04:57.288Z,3.28
2022-08-17T21:08:26.053Z,3.92
2022-08-17T21:11:58.225Z,3.53
2022-08-17T21:14:59.924Z,3.42
2022-08-17T21:18:11.410Z,3.67
2022-08-17T21:21:41.539Z,3.12
2022-08-17T21:24:58.898Z,3.60
2022-08-17T21:28:34.206Z,3.90
2022-08-17T21:31:43.146Z,3.20
2022-08-17T21:35:19.810Z,3.67
2022-08-17T21:38:32.685Z,2.80
2022-08-17T21:41:54.848Z,3.58
2022-08-17T21:45:25.270Z,3.60
2022-08-17T21:48:29.895Z,3.67
2022-08-17T21:51:35.895Z,3.17
2022-08-17T21:54:42.633Z,3.60
2022-08-17T21:57:53.224Z,3.35
2022-08-17T22:01:21.643Z,3.22
2022-08-17T22:04:29.807Z,3.47
2022-08-17T22:07:46.650Z,3.70
2022-08-17T22:10:51.165Z,3.72
2022-08-17T22:14:05.111Z,3.03
2022-08-17T22:17:17.681Z,3.40
2022-08-17T22:20:21.515Z,3.20
2022-08-17T22:23:47.846Z,3.22
2022-08-17T22:27:05.853Z,3.53
2022-08-17T22:30:31.609Z,3.37
2022-08-17T22:33:40.263Z,3.70
2022-08-17T22:36:43.370Z,2.83
2022-08-17T22:39:45.567Z,3.33
2022-08-17T22:42:48.120Z,3.42
2022-08-17T22:45:54.490Z,3.58
2022-08-17T22:48:59.451Z,3.00
2022-08-17T22:52:07.467Z,3.08
2022-08-17T22:55:36.181Z,2.97
2022-08-17T22:59:22.489Z,3.33
2022-08-17T23:02:25.102Z,3.67
2022-08-17T23:05:27.301Z,3.03
2022-08-17T23:08:30.990Z,2.67
2022-08-17T23:11:50.066Z,3.80
2022-08-17T23:15:00.470Z,3.30
2022-08-17T23:18:04.792Z,3.20
2022-08-17T23:21:07.728Z,3.28
2022-08-17T23:24:13.929Z,3.22
2022-08-17T23:27:18.811Z,3.03
2022-08-17T23:30:26.318Z,3.70
2022-08-17T23:33:33.202Z,3.25
2022-08-17T23:36:35.344Z,3.40
2022-08-17T23:39:39.318Z,3.72
2022-08-17T23:42:46.255Z,3.67
2022-08-17T23:45:49.888Z,4.03
2022-08-17T23:48:53.935Z,3.95
2022-08-17T23:51:56.726Z,3.33
2022-08-17T23:54:59.356Z,3.70
2022-08-17T23:58:04.370Z,3.72
